createdAt,value
2019-06-27T00:00:29.391Z,29.00
2019-06-27T00:02:58.039Z,29.00
2019-06-27T00:05:26.648Z,29.00
2019-06-27T00:07:55.200Z,28.90
2019-06-27T00:10:23.794Z,28.90
2019-06-27T00:12:52.509Z,28.90
2019-06-27T00:15:21.035Z,28.80
2019-06-27T00:17:49.867Z,28.70
2019-06-27T00:20:18.378Z,28.70
2019-06-27T00:22:47.018Z,28.70
2019-06-27T00:25:15.847Z,28.60
2019-06-27T00:27:44.308Z,28.70
2019-06-27T00:30:13.091Z,28.80
2019-06-27T00:32:41.560Z,28.80
2019-06-27T00:35:10.147Z,28.70
2019-06-27T00:37:38.624Z,28.70
2019-06-27T00:40:07.728Z,28.70
2019-06-27T00:42:36.193Z,28.60
2019-06-27T00:45:06.569Z,28.60
2019-06-27T00:47:35.109Z,28.60
2019-06-27T00:50:06.000Z,28.50
2019-06-27T00:52:34.488Z,28.40
2019-06-27T00:55:03.470Z,28.30
2019-06-27T00:57:32.292Z,28.30
2019-06-27T01:00:00.728Z,28.20
2019-06-27T01:02:29.227Z,28.20
2019-06-27T01:04:57.756Z,28.10
2019-06-27T01:07:26.302Z,28.10
2019-06-27T01:09:54.763Z,28.10
2019-06-27T01:12:23.221Z,28.00
2019-06-27T01:14:51.662Z,28.00
2019-06-27T01:17:20.113Z,28.00
2019-06-27T01:19:48.581Z,28.00
2019-06-27T01:22:17.145Z,28.00
2019-06-27T01:24:45.621Z,28.00
2019-06-27T01:27:29.071Z,27.90
2019-06-27T01:29:44.336Z,27.90
2019-06-27T01:32:12.865Z,27.80
2019-06-27T01:34:41.323Z,27.80
2019-06-27T01:37:09.780Z,27.70
2019-06-27T01:39:38.280Z,27.60
2019-06-27T01:42:07.068Z,27.60
2019-06-27T01:44:37.314Z,27.50
2019-06-27T01:47:06.897Z,27.40
2019-06-27T01:49:35.523Z,27.40
2019-06-27T01:52:04.559Z,27.30
2019-06-27T01:54:33.027Z,27.30
2019-06-27T01:57:01.989Z,27.30
2019-06-27T01:59:30.527Z,27.30
2019-06-27T02:01:59.015Z,27.10
2019-06-27T02:04:27.516Z,27.10
2019-06-27T02:06:56.123Z,27.00
2019-06-27T02:09:24.587Z,27.00
2019-06-27T02:11:53.057Z,27.00
2019-06-27T02:14:21.602Z,27.00
2019-06-27T02:16:50.070Z,27.00
2019-06-27T02:19:18.609Z,27.00
2019-06-27T02:21:47.064Z,27.00
2019-06-27T02:24:15.580Z,27.00
2019-06-27T02:26:44.444Z,27.10
2019-06-27T02:29:12.912Z,27.20
2019-06-27T02:31:41.725Z,27.20
2019-06-27T02:34:10.512Z,27.20
2019-06-27T02:36:39.314Z,27.10
2019-06-27T02:39:08.029Z,27.10
2019-06-27T02:41:36.668Z,27.10
2019-06-27T02:44:05.347Z,27.10
2019-06-27T02:46:33.808Z,27.10
2019-06-27T02:49:02.356Z,27.10
2019-06-27T02:51:30.919Z,27.10
2019-06-27T02:53:59.440Z,27.10
2019-06-27T02:56:27.980Z,27.00
2019-06-27T02:58:56.422Z,26.90
2019-06-27T03:01:24.981Z,26.90
2019-06-27T03:03:53.419Z,26.70
2019-06-27T03:06:21.909Z,26.60
2019-06-27T03:08:50.414Z,26.50
2019-06-27T03:11:18.955Z,26.50
2019-06-27T03:13:47.622Z,26.40
2019-06-27T03:16:17.477Z,26.40
2019-06-27T03:18:46.114Z,26.20
2019-06-27T03:21:14.675Z,26.20
2019-06-27T03:23:43.168Z,26.10
2019-06-27T03:26:11.729Z,26.00
2019-06-27T03:28:52.261Z,26.00
2019-06-27T03:31:10.396Z,25.90
2019-06-27T03:33:38.923Z,25.90
2019-06-27T03:36:07.520Z,25.90
2019-06-27T03:38:36.175Z,25.80
2019-06-27T03:41:04.701Z,25.90
2019-06-27T03:43:33.165Z,25.80
2019-06-27T03:46:01.907Z,25.80
2019-06-27T03:48:30.357Z,25.70
2019-06-27T03:50:59.267Z,25.60
2019-06-27T03:53:27.727Z,25.60
2019-06-27T03:55:56.285Z,25.60
2019-06-27T03:58:24.836Z,25.60
2019-06-27T04:00:53.360Z,25.60
2019-06-27T04:03:21.852Z,25.60
2019-06-27T04:05:50.296Z,25.50
2019-06-27T04:08:18.756Z,25.50
2019-06-27T04:10:47.448Z,25.50
2019-06-27T04:13:16.032Z,25.50
2019-06-27T04:15:44.551Z,25.60
2019-06-27T04:18:13.298Z,25.60
2019-06-27T04:20:41.768Z,25.60
2019-06-27T04:23:10.293Z,25.70
2019-06-27T04:25:38.729Z,25.70
2019-06-27T04:28:07.288Z,25.70
2019-06-27T04:30:35.745Z,25.60
2019-06-27T04:33:04.234Z,25.60
2019-06-27T04:35:32.988Z,25.50
2019-06-27T04:38:01.525Z,25.40
2019-06-27T04:40:30.343Z,25.40
2019-06-27T04:42:59.036Z,25.50
2019-06-27T04:45:27.632Z,25.40
2019-06-27T04:47:56.182Z,25.40
2019-06-27T04:50:24.697Z,25.30
2019-06-27T04:52:53.176Z,25.20
2019-06-27T04:55:21.714Z,25.20
2019-06-27T04:57:50.193Z,25.20
2019-06-27T05:00:21.717Z,25.10
2019-06-27T05:02:50.196Z,25.10
2019-06-27T05:05:18.657Z,25.10
2019-06-27T05:07:47.173Z,25.00
2019-06-27T05:10:15.704Z,25.10
2019-06-27T05:12:44.257Z,25.20
2019-06-27T05:15:13.111Z,25.20
2019-06-27T05:17:41.582Z,25.20
2019-06-27T05:20:10.204Z,25.30
2019-06-27T05:22:38.675Z,25.20
2019-06-27T05:25:07.244Z,25.10
2019-06-27T05:27:35.730Z,25.10
2019-06-27T05:30:10.065Z,25.10
2019-06-27T05:32:35.567Z,25.00
2019-06-27T05:35:05.208Z,25.00
2019-06-27T05:37:33.780Z,24.90
2019-06-27T05:40:02.317Z,25.00
2019-06-27T05:42:30.855Z,25.00
2019-06-27T05:44:59.306Z,25.20
2019-06-27T05:47:27.837Z,25.30
2019-06-27T05:49:56.299Z,25.40
2019-06-27T05:52:25.051Z,25.60
2019-06-27T05:54:53.493Z,25.70
2019-06-27T05:57:22.137Z,25.80
2019-06-27T05:59:50.580Z,25.90
2019-06-27T06:02:19.056Z,26.00
2019-06-27T06:04:47.595Z,26.00
2019-06-27T06:07:16.110Z,26.10
2019-06-27T06:09:44.553Z,26.10
2019-06-27T06:12:13.015Z,26.10
2019-06-27T06:14:41.511Z,26.10
2019-06-27T06:17:09.994Z,26.20
2019-06-27T06:19:38.436Z,26.20
2019-06-27T06:22:07.015Z,26.30
2019-06-27T06:24:35.613Z,26.30
2019-06-27T06:27:04.094Z,26.30
2019-06-27T06:29:32.541Z,26.40
2019-06-27T06:32:01.006Z,26.40
2019-06-27T06:34:29.450Z,26.50
2019-06-27T06:36:57.914Z,26.60
2019-06-27T06:39:26.367Z,26.80
2019-06-27T06:41:54.832Z,26.90
2019-06-27T06:44:23.290Z,27.00
2019-06-27T06:46:51.763Z,27.20
2019-06-27T06:49:20.260Z,27.40
2019-06-27T06:51:48.714Z,27.40
2019-06-27T06:54:17.193Z,27.40
2019-06-27T06:56:45.703Z,27.50
2019-06-27T06:59:14.414Z,27.50
2019-06-27T07:01:45.568Z,27.60
2019-06-27T07:04:13.056Z,27.70
2019-06-27T07:06:41.501Z,27.70
2019-06-27T07:09:10.176Z,27.70
2019-06-27T07:11:38.689Z,27.70
2019-06-27T07:14:07.223Z,27.70
2019-06-27T07:16:35.688Z,27.60
2019-06-27T07:19:04.234Z,27.60
2019-06-27T07:21:32.697Z,27.70
2019-06-27T07:24:01.219Z,27.80
2019-06-27T07:26:30.007Z,27.90
2019-06-27T07:28:58.536Z,27.90
2019-06-27T07:31:27.293Z,28.00
2019-06-27T07:33:55.838Z,27.90
2019-06-27T07:36:24.274Z,28.00
2019-06-27T07:38:52.748Z,28.00
2019-06-27T07:41:21.254Z,28.10
2019-06-27T07:43:49.724Z,28.20
2019-06-27T07:46:25.132Z,28.40
2019-06-27T07:48:48.716Z,28.60
2019-06-27T07:51:17.155Z,28.80
2019-06-27T07:53:45.725Z,29.10
2019-06-27T07:56:14.251Z,29.30
2019-06-27T07:58:42.716Z,29.50
2019-06-27T08:01:11.169Z,29.70
2019-06-27T08:03:39.678Z,30.00
2019-06-27T08:06:08.135Z,30.50
2019-06-27T08:08:36.596Z,30.90
2019-06-27T08:11:05.076Z,31.30
2019-06-27T08:13:33.538Z,31.70
2019-06-27T08:16:02.161Z,31.80
2019-06-27T08:18:30.621Z,31.90
2019-06-27T08:20:59.071Z,32.00
2019-06-27T08:23:40.967Z,32.00
2019-06-27T08:25:57.766Z,32.10
2019-06-27T08:28:26.258Z,32.40
2019-06-27T08:30:54.742Z,32.70
2019-06-27T08:33:23.354Z,33.00
2019-06-27T08:35:51.812Z,33.30
2019-06-27T08:38:20.335Z,33.80
2019-06-27T08:40:48.796Z,34.10
2019-06-27T08:43:17.273Z,34.50
2019-06-27T08:45:45.793Z,34.90
2019-06-27T08:48:14.321Z,35.40
2019-06-27T08:50:43.071Z,35.60
2019-06-27T08:53:11.591Z,35.80
2019-06-27T08:55:40.087Z,36.00
2019-06-27T08:58:08.534Z,36.30
2019-06-27T09:00:37.010Z,36.60
2019-06-27T09:03:05.667Z,37.00
2019-06-27T09:05:34.132Z,37.30
2019-06-27T09:08:02.669Z,37.40
2019-06-27T09:10:31.137Z,37.70
2019-06-27T09:12:59.572Z,38.00
2019-06-27T09:15:28.093Z,38.30
2019-06-27T09:17:56.627Z,38.50
2019-06-27T09:20:25.170Z,38.50
2019-06-27T09:22:53.607Z,38.50
2019-06-27T09:25:22.704Z,38.60
2019-06-27T09:27:51.234Z,38.70
2019-06-27T09:30:19.955Z,38.80
2019-06-27T09:32:48.459Z,38.80
2019-06-27T09:35:17.187Z,38.70
2019-06-27T09:37:45.700Z,38.70
2019-06-27T09:40:14.407Z,38.80
2019-06-27T09:42:43.186Z,38.80
2019-06-27T09:45:12.048Z,38.80
2019-06-27T09:47:40.552Z,39.00
2019-06-27T09:50:09.623Z,39.30
2019-06-27T09:52:38.071Z,39.50
2019-06-27T09:55:07.183Z,39.60
2019-06-27T09:57:35.610Z,39.60
2019-06-27T10:00:08.804Z,39.80
2019-06-27T10:02:41.841Z,40.20
2019-06-27T10:05:07.546Z,40.40
2019-06-27T10:07:35.983Z,40.60
2019-06-27T10:10:06.471Z,40.90
2019-06-27T10:12:42.182Z,41.40
2019-06-27T10:15:07.541Z,41.80
2019-06-27T10:17:35.980Z,42.00
2019-06-27T10:20:06.453Z,41.90
2019-06-27T10:22:34.981Z,41.50
2019-06-27T10:25:04.790Z,41.00
2019-06-27T10:27:33.392Z,40.50
2019-06-27T10:30:01.917Z,40.20
2019-06-27T10:32:30.648Z,39.80
2019-06-27T10:34:59.216Z,39.40
2019-06-27T10:37:27.756Z,39.10
2019-06-27T10:39:56.342Z,39.10
2019-06-27T10:42:24.860Z,39.50
2019-06-27T10:44:53.308Z,39.80
2019-06-27T10:47:21.795Z,40.30
2019-06-27T10:49:50.301Z,40.50
2019-06-27T10:52:19.044Z,40.50
2019-06-27T10:54:47.495Z,40.40
2019-06-27T10:57:15.961Z,40.60
2019-06-27T10:59:44.403Z,40.80
2019-06-27T11:02:12.881Z,41.20
2019-06-27T11:04:41.353Z,41.30
2019-06-27T11:07:09.865Z,41.20
2019-06-27T11:09:38.297Z,41.10
2019-06-27T11:12:07.237Z,41.00
2019-06-27T11:14:36.056Z,41.10
2019-06-27T11:17:04.539Z,41.30
2019-06-27T11:19:33.064Z,41.60
2019-06-27T11:22:01.523Z,42.10
2019-06-27T11:24:30.052Z,42.60
2019-06-27T11:26:58.668Z,42.80
2019-06-27T11:29:27.101Z,42.90
2019-06-27T11:31:55.574Z,43.00
2019-06-27T11:34:24.090Z,43.10
2019-06-27T11:36:52.539Z,43.40
2019-06-27T11:39:23.361Z,43.80
2019-06-27T11:41:51.563Z,44.20
2019-06-27T11:44:20.071Z,44.50
2019-06-27T11:46:48.798Z,44.60
2019-06-27T11:49:17.322Z,44.90
2019-06-27T11:51:45.824Z,45.30
2019-06-27T11:54:14.305Z,45.30
2019-06-27T11:56:42.883Z,45.00
2019-06-27T11:59:11.338Z,44.30
2019-06-27T12:01:39.852Z,43.70
2019-06-27T12:04:08.308Z,43.10
2019-06-27T12:06:36.737Z,42.70
2019-06-27T12:09:06.222Z,42.50
2019-06-27T12:11:34.663Z,42.40
2019-06-27T12:14:03.135Z,42.60
2019-06-27T12:16:31.558Z,42.60
2019-06-27T12:19:00.141Z,42.50
2019-06-27T12:21:28.607Z,42.40
2019-06-27T12:23:57.179Z,42.10
2019-06-27T12:26:25.622Z,41.80
2019-06-27T12:28:54.117Z,41.50
2019-06-27T12:31:22.547Z,41.20
2019-06-27T12:34:05.493Z,41.10
2019-06-27T12:36:21.710Z,41.20
2019-06-27T12:38:50.166Z,41.10
2019-06-27T12:41:18.630Z,41.10
2019-06-27T12:43:47.177Z,41.20
2019-06-27T12:46:16.055Z,41.40
2019-06-27T12:48:44.500Z,41.60
2019-06-27T12:51:13.038Z,41.90
2019-06-27T12:53:42.028Z,42.40
2019-06-27T12:56:10.798Z,42.80
2019-06-27T12:58:39.302Z,43.30
2019-06-27T13:01:07.768Z,43.80
2019-06-27T13:03:36.253Z,44.20
2019-06-27T13:06:04.763Z,44.70
2019-06-27T13:08:33.301Z,45.00
2019-06-27T13:11:01.746Z,44.90
2019-06-27T13:13:30.594Z,44.30
2019-06-27T13:15:59.173Z,43.90
2019-06-27T13:18:27.619Z,43.70
2019-06-27T13:20:58.304Z,43.70
2019-06-27T13:23:26.252Z,43.70
2019-06-27T13:25:54.715Z,43.70
2019-06-27T13:28:23.147Z,43.80
2019-06-27T13:30:51.678Z,44.00
2019-06-27T13:33:20.103Z,44.40
2019-06-27T13:35:49.258Z,44.70
2019-06-27T13:38:17.766Z,45.00
2019-06-27T13:40:46.218Z,45.00
2019-06-27T13:43:14.702Z,44.90
2019-06-27T13:45:43.171Z,44.90
2019-06-27T13:48:11.677Z,44.60
2019-06-27T13:50:40.198Z,44.40
2019-06-27T13:53:08.652Z,44.40
2019-06-27T13:55:37.536Z,44.50
2019-06-27T13:58:05.967Z,44.50
2019-06-27T14:00:40.439Z,44.40
2019-06-27T14:03:08.888Z,44.20
2019-06-27T14:05:37.419Z,44.00
2019-06-27T14:08:05.860Z,44.10
2019-06-27T14:10:34.333Z,44.00
2019-06-27T14:13:02.784Z,44.00
2019-06-27T14:15:31.359Z,43.90
2019-06-27T14:17:59.789Z,43.50
2019-06-27T14:20:28.345Z,43.20
2019-06-27T14:22:56.981Z,43.00
2019-06-27T14:25:25.433Z,43.10
2019-06-27T14:27:53.945Z,43.20
2019-06-27T14:30:22.620Z,43.60
2019-06-27T14:32:53.479Z,43.90
2019-06-27T14:35:21.234Z,44.00
2019-06-27T14:37:49.695Z,44.00
2019-06-27T14:40:18.676Z,44.20
2019-06-27T14:42:48.040Z,44.50
2019-06-27T14:45:17.036Z,44.90
2019-06-27T14:47:45.821Z,45.20
2019-06-27T14:50:14.670Z,45.50
2019-06-27T14:52:43.132Z,45.70
2019-06-27T14:55:12.008Z,45.60
2019-06-27T14:57:40.547Z,45.30
2019-06-27T15:00:10.737Z,44.90
2019-06-27T15:02:39.307Z,44.70
2019-06-27T15:05:08.211Z,44.40
2019-06-27T15:07:37.053Z,44.30
2019-06-27T15:10:07.674Z,44.20
2019-06-27T15:12:36.263Z,44.10
2019-06-27T15:15:06.040Z,43.80
2019-06-27T15:17:34.579Z,43.40
2019-06-27T15:20:04.365Z,42.90
2019-06-27T15:22:32.827Z,42.60
2019-06-27T15:25:01.394Z,42.40
2019-06-27T15:27:29.925Z,42.10
2019-06-27T15:29:58.711Z,41.80
2019-06-27T15:32:27.168Z,41.40
2019-06-27T15:34:55.635Z,41.20
2019-06-27T15:37:24.105Z,41.10
2019-06-27T15:39:52.595Z,41.20
2019-06-27T15:42:21.047Z,41.20
2019-06-27T15:44:49.489Z,41.20
2019-06-27T15:47:18.259Z,41.50
2019-06-27T15:49:46.991Z,41.60
2019-06-27T15:52:15.589Z,41.80
2019-06-27T15:54:44.340Z,42.20
2019-06-27T15:57:13.142Z,42.40
2019-06-27T15:59:41.571Z,42.50
2019-06-27T16:02:10.024Z,42.40
2019-06-27T16:04:38.473Z,42.40
2019-06-27T16:07:07.059Z,42.30
2019-06-27T16:09:35.591Z,42.10
2019-06-27T16:12:04.182Z,41.70
2019-06-27T16:14:32.697Z,40.90
2019-06-27T16:17:01.391Z,39.90
2019-06-27T16:19:29.842Z,39.00
2019-06-27T16:21:58.311Z,38.30
2019-06-27T16:24:26.799Z,37.70
2019-06-27T16:26:55.240Z,37.00
2019-06-27T16:29:23.710Z,36.40
2019-06-27T16:31:52.221Z,35.80
2019-06-27T16:34:20.977Z,35.40
2019-06-27T16:36:49.417Z,35.00
2019-06-27T16:39:17.884Z,34.60
2019-06-27T16:41:46.419Z,34.30
2019-06-27T16:44:14.881Z,34.10
2019-06-27T16:46:43.329Z,33.90
2019-06-27T16:49:11.780Z,33.70
2019-06-27T16:51:40.229Z,33.60
2019-06-27T16:54:08.743Z,33.50
2019-06-27T16:56:37.188Z,33.50
2019-06-27T16:59:05.717Z,33.40
2019-06-27T17:01:34.295Z,33.30
2019-06-27T17:04:02.835Z,33.10
2019-06-27T17:06:41.333Z,32.90
2019-06-27T17:09:01.508Z,32.80
2019-06-27T17:11:29.964Z,32.70
2019-06-27T17:13:58.410Z,32.60
2019-06-27T17:16:27.555Z,32.50
2019-06-27T17:18:56.023Z,32.50
2019-06-27T17:21:24.448Z,32.40
2019-06-27T17:23:53.204Z,32.30
2019-06-27T17:26:21.642Z,32.20
2019-06-27T17:28:50.106Z,32.20
2019-06-27T17:31:18.535Z,32.20
2019-06-27T17:33:46.969Z,32.20
2019-06-27T17:36:15.418Z,32.20
2019-06-27T17:38:44.167Z,32.10
2019-06-27T17:41:12.641Z,32.00
2019-06-27T17:43:41.602Z,31.90
2019-06-27T17:46:10.391Z,32.00
2019-06-27T17:48:38.825Z,31.90
2019-06-27T17:51:08.145Z,31.90
2019-06-27T17:53:36.814Z,31.90
2019-06-27T17:56:05.285Z,32.00
2019-06-27T17:58:33.730Z,32.00
2019-06-27T18:01:02.248Z,31.90
2019-06-27T18:03:31.063Z,31.80
2019-06-27T18:05:59.514Z,31.90
2019-06-27T18:08:27.966Z,31.90
2019-06-27T18:10:56.501Z,31.80
2019-06-27T18:13:24.944Z,31.80
2019-06-27T18:15:53.402Z,31.70
2019-06-27T18:18:21.841Z,31.60
2019-06-27T18:20:50.327Z,31.60
2019-06-27T18:23:18.831Z,31.40
2019-06-27T18:25:47.375Z,31.40
2019-06-27T18:28:15.810Z,31.40
2019-06-27T18:30:44.288Z,31.40
2019-06-27T18:33:12.791Z,31.30
2019-06-27T18:35:41.718Z,31.10
2019-06-27T18:38:10.173Z,31.00
2019-06-27T18:40:38.637Z,30.90
2019-06-27T18:43:07.067Z,30.90
2019-06-27T18:45:35.527Z,30.80
2019-06-27T18:48:03.971Z,30.80
2019-06-27T18:50:32.448Z,30.70
2019-06-27T18:53:00.885Z,30.70
2019-06-27T18:55:29.432Z,30.70
2019-06-27T18:57:58.182Z,30.60
2019-06-27T19:00:26.866Z,30.60
2019-06-27T19:02:55.924Z,30.60
2019-06-27T19:05:24.560Z,30.50
2019-06-27T19:07:52.995Z,30.40
2019-06-27T19:10:21.634Z,30.40
2019-06-27T19:12:50.066Z,30.30
2019-06-27T19:15:18.676Z,30.30
2019-06-27T19:17:47.473Z,30.20
2019-06-27T19:20:26.451Z,30.20
2019-06-27T19:23:02.554Z,30.10
2019-06-27T19:25:41.854Z,30.00
2019-06-27T19:28:10.308Z,29.90
2019-06-27T19:30:38.995Z,29.70
2019-06-27T19:33:07.435Z,29.70
2019-06-27T19:35:35.891Z,29.60
2019-06-27T19:38:04.331Z,29.60
2019-06-27T19:40:32.783Z,29.50
2019-06-27T19:43:01.310Z,29.50
2019-06-27T19:45:29.837Z,29.40
2019-06-27T19:47:58.350Z,29.30
2019-06-27T19:50:26.798Z,29.20
2019-06-27T19:52:55.260Z,29.20
2019-06-27T19:55:23.751Z,29.20
2019-06-27T19:57:52.218Z,29.20
2019-06-27T20:00:21.082Z,29.10
2019-06-27T20:02:49.540Z,29.00
2019-06-27T20:05:18.043Z,29.00
2019-06-27T20:07:46.519Z,28.90
2019-06-27T20:10:15.405Z,28.90
2019-06-27T20:12:43.923Z,28.70
2019-06-27T20:15:13.011Z,28.60
2019-06-27T20:17:41.759Z,28.60
2019-06-27T20:20:10.647Z,28.50
2019-06-27T20:22:39.184Z,28.40
2019-06-27T20:25:08.360Z,28.30
2019-06-27T20:27:36.811Z,28.20
2019-06-27T20:30:08.711Z,28.20
2019-06-27T20:32:37.171Z,28.30
2019-06-27T20:35:10.671Z,28.20
2019-06-27T20:37:39.275Z,28.10
2019-06-27T20:40:08.451Z,28.00
2019-06-27T20:42:37.048Z,27.80
2019-06-27T20:45:08.991Z,27.80
2019-06-27T20:47:37.447Z,27.60
2019-06-27T20:50:07.568Z,27.60
2019-06-27T20:52:36.068Z,27.50
2019-06-27T20:55:05.042Z,27.50
2019-06-27T20:57:33.566Z,27.40
2019-06-27T21:00:02.019Z,27.40
2019-06-27T21:02:30.628Z,27.30
2019-06-27T21:04:59.062Z,27.10
2019-06-27T21:07:27.516Z,27.10
2019-06-27T21:09:55.946Z,27.00
2019-06-27T21:12:24.387Z,27.00
2019-06-27T21:14:52.911Z,27.10
2019-06-27T21:17:21.608Z,27.00
2019-06-27T21:19:50.091Z,27.00
2019-06-27T21:22:18.536Z,27.00
2019-06-27T21:24:46.992Z,27.00
2019-06-27T21:27:15.436Z,26.90
2019-06-27T21:29:44.222Z,26.90
2019-06-27T21:32:13.020Z,26.90
2019-06-27T21:34:41.796Z,26.90
2019-06-27T21:37:10.250Z,26.80
2019-06-27T21:39:38.709Z,26.70
2019-06-27T21:42:07.216Z,26.70
2019-06-27T21:44:35.782Z,26.60
2019-06-27T21:47:04.219Z,26.60
2019-06-27T21:49:32.680Z,26.60
2019-06-27T21:52:01.219Z,26.50
2019-06-27T21:54:29.847Z,26.50
2019-06-27T21:56:58.425Z,26.50
2019-06-27T21:59:26.948Z,26.40
2019-06-27T22:01:55.447Z,26.40
2019-06-27T22:04:23.905Z,26.30
2019-06-27T22:06:52.351Z,26.20
2019-06-27T22:09:24.952Z,26.20
2019-06-27T22:11:50.967Z,26.20
2019-06-27T22:14:19.491Z,26.20
2019-06-27T22:16:47.954Z,26.10
2019-06-27T22:19:16.432Z,26.00
2019-06-27T22:21:44.951Z,25.80
2019-06-27T22:24:13.418Z,25.70
2019-06-27T22:26:41.917Z,25.60
2019-06-27T22:29:10.454Z,25.50
2019-06-27T22:31:38.899Z,25.40
2019-06-27T22:34:07.367Z,25.30
2019-06-27T22:36:35.888Z,25.30
2019-06-27T22:39:36.466Z,25.20
2019-06-27T22:42:11.647Z,25.20
2019-06-27T22:44:58.161Z,25.30
2019-06-27T22:47:44.616Z,25.30
2019-06-27T22:50:24.567Z,25.30
2019-06-27T22:53:03.753Z,25.20
2019-06-27T22:55:32.270Z,25.10
2019-06-27T22:58:00.705Z,25.10
2019-06-27T23:00:29.241Z,25.10
2019-06-27T23:02:57.679Z,25.10
2019-06-27T23:05:26.142Z,25.10
2019-06-27T23:07:54.586Z,25.00
2019-06-27T23:10:23.039Z,24.90
2019-06-27T23:12:51.466Z,24.70
2019-06-27T23:15:19.999Z,24.60
2019-06-27T23:17:48.498Z,24.50
2019-06-27T23:20:17.082Z,24.50
2019-06-27T23:22:45.541Z,24.40
2019-06-27T23:25:14.062Z,24.40
2019-06-27T23:27:42.512Z,24.40
2019-06-27T23:30:11.803Z,24.40
2019-06-27T23:32:40.252Z,24.40
2019-06-27T23:35:10.633Z,24.40
2019-06-27T23:37:39.207Z,24.50
2019-06-27T23:40:14.057Z,24.50
2019-06-27T23:42:38.730Z,24.50
2019-06-27T23:45:07.404Z,24.40
2019-06-27T23:47:36.471Z,24.40
2019-06-27T23:50:08.382Z,24.30
2019-06-27T23:52:36.843Z,24.20
2019-06-27T23:55:05.438Z,24.20
2019-06-27T23:57:33.875Z,24.10
